Tropical Cyclones
[Index]
Main Index Home Page Stock Weather Photos Extreme Storms Discussion Storm News and Storm Chasing Reports Tropical Cyclones / Hurricanes / Typhoons Weather Data and Links Wild Fires / Bushfires Weather Observation Techniques Weather Picture Catalogue Tornado Pictures and Reports Stock Video Footage and DVDs for sale
Season 1964-1965 Tropical Cyclone RUTH Track Map
Season 1964-1965 Summaries: [BoM-AU] [JTWC-AU] [JTWC-SIO] [JTWC-SPAC] [JTWC-SH]
<<- Previous TC | JTWC 1964-1965 Season | Next TC ->>

click for intensity scale information  Lat/long Grid: Show Hide

 Date Labels: Show Hide

Joint Typhoon Warning Centre Cyclone Data

Name: RUTH
Number: 575 / 6538

24 Mar 1965 00:00 UTC to 03 Apr 1965 18:00 UTC

    date/time    lat    long     hPa   cat  kts
1965-03-24 00    8.7   130.0                              
1965-03-24 06    9.0   129.7                              
1965-03-24 12    9.2   129.5                              
1965-03-24 18    9.4   129.2                              
1965-03-25 00    9.6   128.8                              
1965-03-25 06    9.9   128.4                              
1965-03-25 12   10.1   127.9                              
1965-03-25 18   10.5   127.4                              
1965-03-26 00   10.7   126.9                              
1965-03-26 06   10.9   126.5                              
1965-03-26 12   11.0   126.0                              
1965-03-26 18   11.2   125.5                              
1965-03-27 00   11.7   124.9                              
1965-03-27 06   12.4   124.6                              
1965-03-27 12   13.2   124.5                              
1965-03-27 18   14.1   124.7                              
1965-03-28 00   14.8   124.7                              
1965-03-28 06   15.2   124.2                              
1965-03-28 12   15.3   123.4                              
1965-03-28 18   15.4   122.5                              
1965-03-29 00   15.4   121.6                              
1965-03-29 06   15.3   120.7                              
1965-03-29 12   15.3   119.9                              
1965-03-29 18   15.4   119.0                              
1965-03-30 00   15.5   117.8                              
1965-03-30 06   15.8   115.8                              
1965-03-30 12   16.1   113.6                              
1965-03-30 18   16.4   111.5                              
1965-03-31 00   16.7   109.7                              
1965-03-31 06   17.2   108.4                              
1965-03-31 12   17.7   107.1                              
1965-03-31 18   17.9   105.6                              
1965-04-01 00   18.0   104.2                              
1965-04-01 06   18.1   103.0                              
1965-04-01 12   18.1   101.9                              
1965-04-01 18   18.1   100.9                              
1965-04-02 00   18.0    99.8                              
1965-04-02 06   17.7    98.1                              
1965-04-02 12   17.2    96.2                              
1965-04-02 18   16.5    94.1                              
1965-04-03 00   16.0    92.3                              
1965-04-03 06   16.0    91.1                              
1965-04-03 12   16.3    90.1                              
1965-04-03 18   16.6    89.2                              
Winds are 1-min average.

Tropical cyclone tracks developed by Michael Bath using data from the Joint Typhoon Warning Centre Best Tracks and Google Maps.


[Australian Severe Weather index] [Copyright Notice] [Email Contacts] [Search This Site] [Privacy Policy]
Document: tropical_cyclone_ruth.htm Updated: 18 September 2016